Time;durP1;ratioP1;P1;durP2;ratioP2;P2;SDS_P1;SDS_P2;PMS_P1;PMS_P2;Temp;Humidity;BMP_temperature;BMP_pressure;BME280_temperature;BME280_humidity;BME280_pressure;Samples;Min_cycle;Max_cycle;Signal;HPM_P1;HPM_P2
2022/12/18 00:04:14;;;;;;;32.63;12.60;;;3.40;96.80;;;;;;10397767;28;20009;-69
2022/12/18 00:09:15;;;;;;;31.60;11.47;;;3.30;96.80;;;;;;10393583;28;20169;-68
2022/12/18 00:14:16;;;;;;;34.33;12.02;;;3.30;96.80;;;;;;10393501;28;20167;-67
2022/12/18 00:19:17;;;;;;;30.13;11.48;;;3.30;96.80;;;;;;10396792;28;20616;-69
2022/12/18 00:24:18;;;;;;;33.55;12.63;;;3.60;96.90;;;;;;10394733;28;20022;-68
2022/12/18 00:29:19;;;;;;;38.08;12.32;;;3.30;96.80;;;;;;10395141;28;20478;-67
2022/12/18 00:34:19;;;;;;;28.67;11.30;;;3.30;96.80;;;;;;10396135;28;20099;-67
2022/12/18 00:39:20;;;;;;;33.30;12.45;;;3.30;96.80;;;;;;10395818;28;20120;-67
2022/12/18 00:44:21;;;;;;;39.80;12.65;;;3.20;96.70;;;;;;10395550;28;20025;-70
2022/12/18 00:49:21;;;;;;;35.90;11.82;;;4.50;97.00;;;;;;10395680;28;20509;-67
2022/12/18 00:54:22;;;;;;;35.40;12.60;;;3.20;96.70;;;;;;10397460;28;20045;-70
2022/12/18 00:59:23;;;;;;;31.73;11.70;;;3.20;96.70;;;;;;10397179;28;20629;-67
2022/12/18 01:04:23;;;;;;;33.33;12.68;;;3.20;96.70;;;;;;10396108;28;20471;-70
2022/12/18 01:09:24;;;;;;;34.58;12.52;;;4.80;97.10;;;;;;10393517;28;20024;-68
2022/12/18 01:14:25;;;;;;;34.45;13.95;;;4.10;96.90;;;;;;10396311;28;20506;-69
2022/12/18 01:19:25;;;;;;;32.38;12.63;;;3.20;96.70;;;;;;10397397;28;20113;-67
2022/12/18 01:24:26;;;;;;;31.83;11.27;;;3.20;96.70;;;;;;10396812;28;20040;-70
2022/12/18 01:29:27;;;;;;;35.60;12.88;;;3.20;96.70;;;;;;10396799;28;20026;-67
2022/12/18 01:34:27;;;;;;;34.17;12.23;;;3.30;96.70;;;;;;10404111;28;20543;-66
2022/12/18 01:39:28;;;;;;;34.40;12.48;;;3.20;96.70;;;;;;10404865;28;20029;-67
2022/12/18 01:44:47;;;;;;;37.63;13.75;;;4.00;96.80;;;;;;10404846;28;20532;-68
2022/12/18 01:49:47;;;;;;;32.25;11.32;;;3.20;96.60;;;;;;10404532;28;20083;-66
2022/12/18 01:54:51;;;;;;;31.63;12.50;;;3.10;96.60;;;;;;10404378;28;20079;-68
2022/12/18 01:59:55;;;;;;;33.47;12.15;;;3.10;96.60;;;;;;10404476;28;20434;-67
2022/12/18 02:04:56;;;;;;;35.05;12.73;;;3.10;96.70;;;;;;10404235;28;20029;-67
2022/12/18 02:10:15;;;;;;;28.90;11.65;;;3.10;96.70;;;;;;10403813;28;20075;-67
2022/12/18 02:15:24;;;;;;;35.22;11.75;;;3.10;96.70;;;;;;10402848;28;20371;-67
2022/12/18 02:20:39;;;;;;;33.95;11.85;;;3.10;96.70;;;;;;10403140;28;20053;-67
2022/12/18 02:25:58;;;;;;;34.88;11.88;;;3.00;96.60;;;;;;10401397;28;20060;-68
2022/12/18 02:31:03;;;;;;;32.15;12.02;;;3.00;96.60;;;;;;10402480;28;20045;-68
2022/12/18 02:36:06;;;;;;;34.15;12.80;;;3.40;96.80;;;;;;10401888;28;20358;-69
2022/12/18 02:41:07;;;;;;;31.58;12.15;;;3.00;96.70;;;;;;10402574;28;21189;-67
2022/12/18 02:46:45;;;;;;;33.83;12.13;;;3.00;96.70;;;;;;10401067;28;20397;-67
2022/12/18 02:51:52;;;;;;;36.97;13.70;;;3.00;96.60;;;;;;10350155;28;20048;-67
2022/12/18 02:56:57;;;;;;;29.48;12.15;;;3.00;96.70;;;;;;10400966;28;20044;-67
2022/12/18 03:02:19;;;;;;;34.25;12.18;;;3.00;96.70;;;;;;10401595;28;20036;-67
2022/12/18 03:07:27;;;;;;;27.92;11.00;;;2.90;96.60;;;;;;10399080;28;20517;-68
2022/12/18 03:12:32;;;;;;;31.55;11.68;;;2.90;96.70;;;;;;10400809;28;20029;-68
2022/12/18 03:17:34;;;;;;;28.58;11.18;;;2.90;96.60;;;;;;10400703;28;20403;-67
2022/12/18 03:22:37;;;;;;;33.03;12.02;;;2.90;96.20;;;;;;10400550;28;20393;-67
2022/12/18 03:27:45;;;;;;;35.25;11.20;;;2.90;96.60;;;;;;10400558;28;20499;-67
2022/12/18 03:33:02;;;;;;;27.90;11.80;;;2.90;96.60;;;;;;10400686;28;20393;-69
2022/12/18 03:38:03;;;;;;;32.10;10.63;;;2.80;96.60;;;;;;10400332;28;20053;-69
2022/12/18 03:43:14;;;;;;;29.33;10.10;;;2.80;96.60;;;;;;10400003;28;20018;-69
2022/12/18 03:48:35;;;;;;;34.13;12.25;;;2.80;96.60;;;;;;10397508;28;20350;-67
2022/12/18 03:53:47;;;;;;;28.83;10.95;;;2.80;96.60;;;;;;10397957;28;20108;-69
2022/12/18 03:58:50;;;;;;;26.50;10.15;;;2.80;96.60;;;;;;10396806;28;20608;-68
2022/12/18 04:03:52;;;;;;;32.65;11.77;;;2.80;96.60;;;;;;10398794;28;20053;-70
2022/12/18 04:08:53;;;;;;;24.15;10.27;;;2.70;96.60;;;;;;10398840;28;20056;-69
2022/12/18 04:13:57;;;;;;;27.05;10.18;;;2.70;96.60;;;;;;10398583;28;20133;-68
2022/12/18 04:18:57;;;;;;;29.48;10.90;;;2.70;96.60;;;;;;10398422;28;20036;-70
2022/12/18 04:23:58;;;;;;;25.27;10.15;;;4.40;97.00;;;;;;10399007;28;20026;-68
2022/12/18 04:28:59;;;;;;;24.80;9.18;;;2.70;96.60;;;;;;10398969;28;20418;-68
2022/12/18 04:33:59;;;;;;;30.05;10.77;;;2.70;96.60;;;;;;10399085;28;20032;-68
2022/12/18 04:39:00;;;;;;;27.42;10.30;;;2.70;96.60;;;;;;10397866;28;20040;-67
2022/12/18 04:44:01;;;;;;;28.38;11.10;;;2.70;96.50;;;;;;10397540;28;20014;-68
2022/12/18 04:49:01;;;;;;;25.42;9.57;;;2.60;96.50;;;;;;10397551;28;20026;-67
2022/12/18 04:54:02;;;;;;;27.60;10.48;;;2.60;96.50;;;;;;10394854;28;20029;-69
2022/12/18 04:59:03;;;;;;;22.52;9.57;;;2.60;96.50;;;;;;10396858;28;20052;-68
2022/12/18 05:04:04;;;;;;;24.42;10.43;;;3.00;96.60;;;;;;10397175;28;20071;-70
2022/12/18 05:09:04;;;;;;;23.45;9.63;;;2.60;96.50;;;;;;10403165;28;20021;-68
2022/12/18 05:14:05;;;;;;;24.17;9.02;;;2.60;96.50;;;;;;10405530;28;20040;-67
2022/12/18 05:19:06;;;;;;;25.35;10.05;;;2.60;96.50;;;;;;10405344;28;20809;-68
2022/12/18 05:24:06;;;;;;;26.25;8.85;;;2.60;96.50;;;;;;10405708;28;20034;-68
2022/12/18 05:29:07;;;;;;;22.95;9.15;;;3.10;96.60;;;;;;10403644;28;20454;-70
2022/12/18 05:34:07;;;;;;;20.15;8.73;;;2.50;96.40;;;;;;10403382;28;20025;-68
2022/12/18 05:39:08;;;;;;;22.55;9.05;;;2.50;96.40;;;;;;10403214;28;20487;-67
2022/12/18 05:44:09;;;;;;;22.10;9.23;;;2.50;96.40;;;;;;10402946;28;20482;-68
2022/12/18 05:49:09;;;;;;;22.17;8.07;;;2.50;96.40;;;;;;10403993;28;20036;-67
2022/12/18 05:54:10;;;;;;;22.50;8.30;;;2.50;96.40;;;;;;10404570;28;20014;-67
2022/12/18 05:59:11;;;;;;;28.38;10.23;;;2.50;96.70;;;;;;10403960;28;20508;-67
2022/12/18 06:04:12;;;;;;;25.77;9.00;;;3.90;96.80;;;;;;10403568;28;20025;-67
2022/12/18 06:09:12;;;;;;;19.65;8.13;;;2.40;96.40;;;;;;10403549;28;20408;-67
2022/12/18 06:14:13;;;;;;;19.75;8.00;;;2.50;96.40;;;;;;10402962;28;20045;-69
2022/12/18 06:19:15;;;;;;;18.58;8.27;;;2.40;96.40;;;;;;10402504;28;20033;-67
2022/12/18 06:24:16;;;;;;;21.40;8.20;;;2.40;96.40;;;;;;10402363;28;20363;-67
2022/12/18 06:29:17;;;;;;;20.05;7.82;;;2.40;96.40;;;;;;10402710;28;20041;-67
2022/12/18 06:34:17;;;;;;;26.45;9.35;;;2.40;96.40;;;;;;10402578;28;20493;-67
2022/12/18 06:39:18;;;;;;;21.90;8.02;;;2.40;96.40;;;;;;10402565;28;20395;-67
2022/12/18 06:44:19;;;;;;;21.10;8.80;;;2.40;96.40;;;;;;10401965;28;20100;-67
2022/12/18 06:49:19;;;;;;;21.30;7.32;;;2.30;96.40;;;;;;10402082;28;20049;-67
2022/12/18 06:54:20;;;;;;;22.58;9.20;;;3.50;96.60;;;;;;10401488;28;20018;-66
2022/12/18 06:59:21;;;;;;;19.10;8.10;;;2.30;96.30;;;;;;10399507;28;20388;-68
2022/12/18 07:04:21;;;;;;;22.67;8.07;;;2.30;96.30;;;;;;10392194;28;20049;-67
2022/12/18 07:09:22;;;;;;;20.30;7.90;;;2.30;96.30;;;;;;10396997;28;20533;-68
2022/12/18 07:14:23;;;;;;;23.13;8.73;;;2.30;96.30;;;;;;10397482;28;20045;-67
2022/12/18 07:19:23;;;;;;;25.33;9.05;;;2.30;96.30;;;;;;10396551;28;20107;-70
2022/12/18 07:24:24;;;;;;;19.92;8.18;;;2.30;96.30;;;;;;10395544;28;20370;-69
2022/12/18 07:29:25;;;;;;;23.70;8.10;;;2.30;96.50;;;;;;10395449;28;20170;-68
2022/12/18 07:34:26;;;;;;;18.80;7.88;;;2.30;96.30;;;;;;10396189;28;20021;-67
2022/12/18 07:39:26;;;;;;;24.08;8.63;;;2.30;96.30;;;;;;10395103;28;20186;-67
2022/12/18 07:44:27;;;;;;;22.83;8.48;;;2.30;96.30;;;;;;10394560;28;20021;-67
2022/12/18 07:49:28;;;;;;;19.70;7.47;;;2.20;96.30;;;;;;10394377;28;20033;-67
2022/12/18 07:54:29;;;;;;;20.33;7.13;;;2.30;96.30;;;;;;10390197;28;20033;-67
2022/12/18 07:59:29;;;;;;;20.88;7.78;;;2.20;96.30;;;;;;10343869;28;20021;-70
2022/12/18 08:04:30;;;;;;;20.92;8.15;;;2.20;96.30;;;;;;10316747;28;20032;-67
2022/12/18 08:09:31;;;;;;;18.27;7.68;;;2.20;96.40;;;;;;10298225;28;20500;-68
2022/12/18 08:14:32;;;;;;;17.80;7.80;;;2.20;96.20;;;;;;10295663;28;20141;-68
2022/12/18 08:19:32;;;;;;;19.10;7.30;;;2.20;96.20;;;;;;10320453;28;20033;-68
2022/12/18 08:24:34;;;;;;;19.95;8.02;;;2.20;96.20;;;;;;10318751;28;20053;-70
2022/12/18 08:29:35;;;;;;;19.63;7.95;;;2.20;96.20;;;;;;10319701;28;20554;-68
2022/12/18 08:34:36;;;;;;;17.52;6.88;;;2.20;96.10;;;;;;10318543;28;20651;-70
2022/12/18 08:39:36;;;;;;;18.70;8.27;;;2.20;96.10;;;;;;10317943;28;20029;-68
2022/12/18 08:44:37;;;;;;;20.20;8.50;;;2.20;96.10;;;;;;10318214;28;20045;-67
2022/12/18 08:49:38;;;;;;;19.30;7.72;;;2.20;95.70;;;;;;10319821;28;20048;-69
2022/12/18 08:54:38;;;;;;;19.55;7.53;;;2.20;96.10;;;;;;10319026;28;20041;-70
2022/12/18 08:59:39;;;;;;;21.25;8.68;;;3.00;96.20;;;;;;10318234;28;20144;-69
2022/12/18 09:04:40;;;;;;;18.42;7.65;;;2.20;96.00;;;;;;10315413;28;20033;-68
2022/12/18 09:09:40;;;;;;;18.02;7.40;;;2.30;95.90;;;;;;10311124;28;20033;-66
2022/12/18 09:14:41;;;;;;;18.90;7.75;;;2.30;95.90;;;;;;10315129;28;20264;-67
2022/12/18 09:19:42;;;;;;;18.67;7.07;;;2.30;95.90;;;;;;10309645;28;20342;-65
2022/12/18 09:24:42;;;;;;;15.57;7.43;;;2.30;95.60;;;;;;10311666;28;20303;-64
2022/12/18 09:29:43;;;;;;;15.38;6.88;;;2.40;95.70;;;;;;10308705;28;20077;-63
2022/12/18 09:34:44;;;;;;;18.75;8.00;;;2.70;95.90;;;;;;10309378;28;20088;-63
2022/12/18 09:39:44;;;;;;;18.33;7.30;;;2.30;95.50;;;;;;10308975;28;20033;-63
2022/12/18 09:44:50;;;;;;;16.58;6.72;;;1.90;95.40;;;;;;10312993;28;21113;-64
2022/12/18 09:49:56;;;;;;;14.88;6.65;;;2.30;95.30;;;;;;10315646;28;20025;-65
2022/12/18 09:55:14;;;;;;;13.80;6.18;;;2.30;95.60;;;;;;10322024;28;20540;-68
2022/12/18 10:00:19;;;;;;;15.13;6.93;;;2.30;95.60;;;;;;10318798;28;20750;-69
2022/12/18 10:05:46;;;;;;;13.10;5.65;;;2.30;95.60;;;;;;10318718;28;20032;-68
2022/12/18 10:10:51;;;;;;;14.75;6.45;;;2.40;95.50;;;;;;10315951;28;20464;-69
2022/12/18 10:16:08;;;;;;;11.90;5.90;;;2.40;95.60;;;;;;10319705;28;20501;-68
2022/12/18 10:21:18;;;;;;;14.32;5.38;;;2.80;95.60;;;;;;10325796;28;20025;-68
2022/12/18 10:26:19;;;;;;;14.13;5.82;;;2.40;95.50;;;;;;10323705;28;20045;-67
2022/12/18 10:31:29;;;;;;;14.05;6.28;;;2.40;95.50;;;;;;10319486;28;20460;-66
2022/12/18 10:36:29;;;;;;;14.88;5.53;;;2.40;95.50;;;;;;10321256;28;20453;-66
2022/12/18 10:41:32;;;;;;;13.52;6.07;;;2.40;95.50;;;;;;10319072;28;20030;-68
2022/12/18 10:46:32;;;;;;;11.52;5.50;;;2.50;95.50;;;;;;10321188;28;20158;-67
2022/12/18 10:51:36;;;;;;;15.30;5.90;;;2.90;95.60;;;;;;10325781;28;20154;-66
2022/12/18 10:56:37;;;;;;;12.75;5.82;;;2.50;95.50;;;;;;10324743;28;20037;-66
2022/12/18 11:01:56;;;;;;;10.52;5.35;;;2.50;95.40;;;;;;10320693;28;20349;-68
2022/12/18 11:06:57;;;;;;;11.07;5.38;;;2.50;95.40;;;;;;10323460;28;20103;-72
2022/12/18 11:12:05;;;;;;;9.88;4.85;;;2.60;95.40;;;;;;10319858;28;20543;-68
2022/12/18 11:17:19;;;;;;;14.10;5.60;;;2.60;95.40;;;;;;10319446;28;20047;-66
2022/12/18 11:22:31;;;;;;;9.50;5.07;;;2.60;95.30;;;;;;10323997;28;20288;-66
2022/12/18 11:27:32;;;;;;;9.63;5.10;;;3.80;95.60;;;;;;10316784;28;20290;-65
2022/12/18 11:32:40;;;;;;;11.02;4.95;;;2.70;95.10;;;;;;10319486;28;20045;-69
2022/12/18 11:37:46;;;;;;;9.57;4.00;;;2.70;95.30;;;;;;10318346;28;20151;-64
2022/12/18 11:43:02;;;;;;;10.07;4.40;;;2.70;95.30;;;;;;10319829;28;20025;-66
2022/12/18 11:48:28;;;;;;;6.95;3.63;;;2.70;95.30;;;;;;10322202;28;20689;-62
2022/12/18 11:53:30;;;;;;;10.45;4.43;;;2.30;95.10;;;;;;10318670;28;20467;-67
2022/12/18 12:10:49;;;;;;;;;;;;;;;;;;;;;
2022/12/18 12:26:01;;;;;;;7.53;3.85;;;2.60;95.30;;;;;;11618091;23;20543;-67
2022/12/18 12:36:23;;;;;;;7.68;3.85;;;2.00;95.10;;;;;;10233991;23;20054;-67
2022/12/18 12:46:49;;;;;;;8.32;3.63;;;2.80;95.20;;;;;;10195323;28;20577;-68
2022/12/18 12:52:13;;;;;;;8.48;3.92;;;4.20;95.50;;;;;;10191694;28;20054;-68
2022/12/18 12:57:33;;;;;;;6.95;3.72;;;2.80;95.00;;;;;;10194591;28;20034;-67
2022/12/18 13:02:39;;;;;;;9.73;3.60;;;2.90;95.10;;;;;;10199613;28;20191;-67
2022/12/18 13:07:47;;;;;;;7.53;3.60;;;3.50;95.00;;;;;;10200189;28;20232;-66
2022/12/18 13:13:15;;;;;;;9.57;4.07;;;2.90;95.10;;;;;;10193573;28;20125;-70
2022/12/18 13:18:23;;;;;;;12.55;3.95;;;3.00;95.30;;;;;;10205254;28;20688;-66
2022/12/18 13:23:24;;;;;;;8.30;4.10;;;3.10;95.10;;;;;;10198252;28;20041;-65
2022/12/18 13:28:47;;;;;;;7.20;4.30;;;4.10;95.30;;;;;;10204400;28;20835;-67
2022/12/18 13:33:50;;;;;;;8.50;4.45;;;3.20;95.20;;;;;;10206463;28;20067;-67
2022/12/18 13:39:14;;;;;;;6.85;3.67;;;4.90;95.60;;;;;;10185748;28;20498;-66
2022/12/18 13:44:28;;;;;;;8.70;4.15;;;4.60;95.60;;;;;;10194710;28;20046;-67
2022/12/18 13:49:42;;;;;;;9.85;4.07;;;3.30;95.20;;;;;;10207536;28;20030;-67
2022/12/18 13:54:49;;;;;;;12.10;3.50;;;3.20;95.10;;;;;;10202456;28;20038;-67
2022/12/18 13:59:49;;;;;;;5.43;3.33;;;3.20;95.20;;;;;;10185170;28;20363;-69
2022/12/18 14:04:53;;;;;;;8.40;3.67;;;3.00;95.20;;;;;;10200756;28;20471;-67
2022/12/18 15:29:03;;;;;;;6.53;3.65;;;3.00;95.10;;;;;;10198703;23;20061;-79
2022/12/18 15:34:25;;;;;;;7.57;4.10;;;3.10;95.20;;;;;;10231826;28;20031;-79
2022/12/18 15:39:25;;;;;;;5.55;3.30;;;3.00;95.10;;;;;;10273593;28;20080;-79
2022/12/18 15:44:26;;;;;;;7.47;3.95;;;3.00;95.10;;;;;;10285826;28;20022;-78
2022/12/18 15:49:27;;;;;;;8.13;3.58;;;3.00;95.00;;;;;;10284705;28;20481;-79
2022/12/18 15:59:58;;;;;;;10.38;3.95;;;3.00;95.00;;;;;;10232540;28;20027;-79
2022/12/18 16:04:58;;;;;;;8.65;3.75;;;3.00;95.00;;;;;;10268551;28;20042;-78
2022/12/18 16:09:59;;;;;;;7.18;3.97;;;3.00;95.00;;;;;;10274616;28;20030;-78
2022/12/18 16:15:00;;;;;;;6.38;3.35;;;3.00;94.90;;;;;;10277404;28;20030;-78
2022/12/18 16:20:00;;;;;;;6.18;3.78;;;3.00;94.90;;;;;;10269974;28;20521;-78
2022/12/18 16:25:01;;;;;;;8.10;3.88;;;3.00;94.90;;;;;;10266392;28;20034;-78
2022/12/18 16:30:02;;;;;;;7.45;3.55;;;3.00;94.90;;;;;;10260064;28;20035;-78
2022/12/18 16:35:03;;;;;;;6.55;3.63;;;3.00;94.90;;;;;;10259297;28;20038;-78
2022/12/18 16:40:05;;;;;;;7.10;3.78;;;3.00;94.90;;;;;;10269712;28;20679;-79
2022/12/18 16:45:07;;;;;;;6.80;3.45;;;3.00;94.90;;;;;;10281262;28;20063;-77
2022/12/18 16:50:09;;;;;;;7.78;4.03;;;3.00;94.90;;;;;;10254745;28;20035;-84
2022/12/18 16:55:09;;;;;;;8.50;3.80;;;3.00;94.90;;;;;;10268255;28;20250;-80
2022/12/18 17:00:11;;;;;;;7.68;3.50;;;3.00;94.90;;;;;;10263406;28;20019;-78
2022/12/18 17:05:11;;;;;;;7.88;4.28;;;3.00;94.90;;;;;;10270482;28;20046;-77
2022/12/18 17:10:12;;;;;;;6.60;3.65;;;3.00;94.90;;;;;;10272766;28;20134;-77
2022/12/18 17:15:12;;;;;;;8.25;4.03;;;3.00;94.50;;;;;;10273239;28;20026;-76
2022/12/18 17:20:13;;;;;;;7.38;4.00;;;3.00;94.90;;;;;;10278747;28;20448;-76
2022/12/18 17:25:14;;;;;;;7.00;3.50;;;3.00;94.90;;;;;;10279637;28;20371;-77
2022/12/18 17:35:25;;;;;;;7.50;3.60;;;3.30;95.00;;;;;;8377125;26;20135;-67
2022/12/18 17:40:25;;;;;;;7.85;4.22;;;3.00;94.90;;;;;;10196904;29;20046;-68
2022/12/18 17:45:26;;;;;;;7.75;4.07;;;3.00;94.90;;;;;;10188832;29;20043;-69
2022/12/18 17:50:26;;;;;;;15.93;5.30;;;3.00;94.90;;;;;;10179963;29;20365;-65
2022/12/18 17:55:28;;;;;;;7.13;4.50;;;3.10;95.00;;;;;;10183865;29;20035;-68
2022/12/18 18:00:28;;;;;;;8.38;4.68;;;3.20;95.10;;;;;;10180943;29;20110;-68
2022/12/18 18:05:29;;;;;;;9.85;4.60;;;3.20;95.10;;;;;;10179477;29;20028;-68
2022/12/18 18:10:30;;;;;;;12.32;5.05;;;3.20;95.10;;;;;;10182867;29;20480;-68
2022/12/18 18:15:30;;;;;;;8.50;4.72;;;3.20;95.10;;;;;;10187108;29;20396;-68
2022/12/18 18:20:31;;;;;;;8.52;4.70;;;3.20;95.10;;;;;;10190724;29;20028;-69
2022/12/18 18:25:36;;;;;;;12.65;4.82;;;3.30;95.40;;;;;;10188300;29;20411;-65
2022/12/18 18:30:39;;;;;;;9.32;4.65;;;3.50;95.70;;;;;;10196361;29;20151;-71
2022/12/18 18:35:44;;;;;;;9.13;4.57;;;3.70;95.40;;;;;;10166868;29;20039;-69
2022/12/18 18:40:56;;;;;;;10.32;4.50;;;3.70;95.30;;;;;;10193083;29;20492;-68
2022/12/18 18:45:58;;;;;;;11.10;5.40;;;4.50;95.60;;;;;;10192129;29;20463;-68
2022/12/18 18:51:20;;;;;;;12.00;5.50;;;3.70;95.40;;;;;;10194648;29;20035;-69
2022/12/18 18:56:24;;;;;;;10.48;4.97;;;2.30;95.00;;;;;;10182538;29;20044;-69
2022/12/18 19:01:26;;;;;;;11.70;5.32;;;3.90;95.40;;;;;;10202543;29;20076;-69
2022/12/18 19:06:29;;;;;;;11.27;5.70;;;4.90;95.70;;;;;;10207105;29;20043;-68
2022/12/18 19:16:49;;;;;;;10.40;5.72;;;3.60;95.40;;;;;;10190477;29;20038;-68
2022/12/18 19:21:50;;;;;;;12.82;5.80;;;3.50;95.50;;;;;;10193995;29;20016;-69
2022/12/18 19:26:51;;;;;;;14.02;7.07;;;3.60;95.40;;;;;;10190842;29;20028;-68
2022/12/18 19:31:51;;;;;;;16.77;7.07;;;3.60;95.40;;;;;;10192510;29;20024;-69
2022/12/18 19:36:52;;;;;;;12.40;6.70;;;3.50;95.40;;;;;;10195952;29;20122;-70
2022/12/18 19:41:53;;;;;;;13.30;6.57;;;3.50;95.40;;;;;;10192027;29;20484;-69
2022/12/18 19:47:08;;;;;;;16.92;7.72;;;4.00;95.50;;;;;;10172003;29;20020;-69
2022/12/18 19:52:13;;;;;;;17.83;7.78;;;4.80;95.70;;;;;;10189696;29;20142;-70
2022/12/18 19:57:14;;;;;;;16.15;7.45;;;3.50;95.30;;;;;;10173812;29;20292;-69
2022/12/18 20:02:14;;;;;;;15.73;7.35;;;3.50;95.30;;;;;;10189328;29;20031;-70
2022/12/18 20:07:15;;;;;;;17.60;7.68;;;3.50;95.30;;;;;;10185284;29;20039;-70
2022/12/18 20:12:28;;;;;;;18.33;8.02;;;4.90;96.00;;;;;;10187750;29;20875;-70
2022/12/18 20:17:28;;;;;;;18.17;7.90;;;3.60;95.30;;;;;;10174198;29;20043;-70
2022/12/18 20:22:47;;;;;;;17.67;7.85;;;3.50;95.30;;;;;;10190860;29;20484;-70
2022/12/18 20:27:48;;;;;;;17.57;8.10;;;3.50;95.30;;;;;;10187664;29;20039;-70
2022/12/18 20:32:58;;;;;;;24.25;9.15;;;3.50;95.30;;;;;;10193712;29;20317;-70
2022/12/18 20:38:44;;;;;;;;;;;;;;;;;;;;;
2022/12/18 20:49:40;;;;;;;20.92;9.50;;;3.50;95.20;;;;;;10105164;29;20124;-68
2022/12/18 20:54:53;;;;;;;21.10;8.82;;;3.50;95.30;;;;;;10179828;29;20039;-68
2022/12/18 21:00:40;;;;;;;19.25;8.85;;;3.70;95.40;;;;;;10185735;29;20393;-68
2022/12/18 21:05:44;;;;;;;20.75;9.95;;;2.60;95.10;;;;;;10184746;29;20040;-66
2022/12/18 21:10:44;;;;;;;22.60;9.07;;;3.60;96.20;;;;;;10188294;29;20471;-69
2022/12/18 21:15:45;;;;;;;18.70;8.50;;;3.80;96.50;;;;;;10180190;29;20385;-69
2022/12/18 21:20:46;;;;;;;22.63;10.07;;;3.80;95.90;;;;;;10175710;29;20020;-69
2022/12/18 21:25:46;;;;;;;18.05;8.88;;;3.80;95.80;;;;;;10186825;29;20024;-68
2022/12/18 21:30:47;;;;;;;24.05;10.48;;;3.80;95.80;;;;;;10188115;29;20055;-68
2022/12/18 21:35:48;;;;;;;23.75;10.38;;;3.70;96.10;;;;;;10193190;29;20579;-67
2022/12/18 21:40:49;;;;;;;21.70;9.50;;;3.70;95.80;;;;;;10189945;29;20025;-68
2022/12/18 21:45:49;;;;;;;20.33;10.20;;;3.70;95.80;;;;;;10188929;29;20028;-68
2022/12/18 21:50:50;;;;;;;24.88;10.30;;;3.70;95.80;;;;;;10202598;29;20030;-68
2022/12/18 21:55:59;;;;;;;22.52;9.43;;;3.60;95.80;;;;;;10201434;29;20434;-67
2022/12/18 22:01:00;;;;;;;24.83;10.23;;;3.60;95.80;;;;;;10184704;29;20024;-67
2022/12/18 22:06:00;;;;;;;22.75;10.30;;;3.60;95.80;;;;;;10192622;29;20357;-68
2022/12/18 22:11:01;;;;;;;23.58;10.25;;;3.60;95.80;;;;;;10194263;29;20123;-68
2022/12/18 22:16:02;;;;;;;22.02;9.88;;;3.60;95.80;;;;;;10195839;29;20039;-68
2022/12/18 22:21:03;;;;;;;21.90;9.77;;;3.60;95.80;;;;;;10195149;29;20016;-68
2022/12/18 22:26:04;;;;;;;26.77;10.27;;;3.00;95.70;;;;;;10193485;29;20038;-68
2022/12/18 22:31:05;;;;;;;21.08;10.52;;;3.60;95.80;;;;;;10194270;29;20996;-69
2022/12/18 22:36:06;;;;;;;22.25;9.75;;;3.60;95.80;;;;;;10194050;29;20032;-68
2022/12/18 22:41:07;;;;;;;23.27;10.50;;;3.50;95.80;;;;;;10195168;29;20020;-69
2022/12/18 22:46:14;;;;;;;21.85;10.10;;;3.60;95.80;;;;;;10194183;29;20026;-69
2022/12/18 22:51:16;;;;;;;26.65;9.88;;;3.60;95.80;;;;;;10193312;29;20036;-68
2022/12/18 22:56:17;;;;;;;25.65;10.95;;;3.50;95.80;;;;;;10196257;29;20036;-68
2022/12/18 23:01:23;;;;;;;25.50;11.65;;;3.50;95.80;;;;;;10193243;29;20032;-69
2022/12/18 23:06:25;;;;;;;23.15;10.40;;;3.60;95.80;;;;;;10196737;29;20050;-68
2022/12/18 23:11:26;;;;;;;26.05;11.20;;;3.60;95.80;;;;;;10195907;29;20111;-68
2022/12/18 23:16:27;;;;;;;23.77;10.52;;;3.60;95.80;;;;;;10186478;29;20126;-69
2022/12/18 23:21:28;;;;;;;23.60;11.27;;;3.60;96.10;;;;;;10191121;29;20035;-69
2022/12/18 23:26:28;;;;;;;25.23;10.52;;;3.60;96.10;;;;;;10193008;29;20475;-69
2022/12/18 23:31:35;;;;;;;26.90;10.70;;;3.60;95.80;;;;;;10197111;29;20511;-68
2022/12/18 23:36:36;;;;;;;25.05;10.80;;;3.60;95.90;;;;;;10198913;29;20067;-69
2022/12/18 23:41:37;;;;;;;24.33;11.18;;;3.60;95.80;;;;;;10182455;29;20472;-69
2022/12/18 23:46:37;;;;;;;29.00;12.00;;;3.60;95.90;;;;;;10199464;29;20031;-68
2022/12/18 23:51:38;;;;;;;25.48;10.82;;;3.60;95.90;;;;;;10194056;29;20016;-69
2022/12/18 23:56:38;;;;;;;27.27;11.05;;;3.60;95.90;;;;;;10192897;29;20028;-69
